TimeCST,TemperatureF,Dew PointF,Humidity,Sea Level PressureIn,VisibilityMPH,Wind Direction,Wind SpeedMPH,Gust SpeedMPH,PrecipitationIn,Events,Conditions,WindDirDegrees,DateUTC
12:53 AM,69.1,55.0,61,29.72,10.0,SSW,17.3,31.1,N/A,,Clear,200,2011-11-13 06:53:00
1:53 AM,69.1,55.0,61,29.70,10.0,SSW,25.3,40.3,N/A,,Clear,210,2011-11-13 07:53:00
2:53 AM,69.1,55.9,63,29.70,10.0,SSW,25.3,36.8,N/A,,Clear,210,2011-11-13 08:53:00
3:53 AM,68.0,55.9,65,29.71,10.0,SSW,19.6,29.9,N/A,,Clear,210,2011-11-13 09:53:00
4:53 AM,68.0,55.9,65,29.72,10.0,SSW,11.5,20.7,N/A,,Clear,210,2011-11-13 10:53:00
5:53 AM,68.0,55.9,65,29.71,10.0,SSW,11.5,24.2,N/A,,Clear,210,2011-11-13 11:53:00
6:53 AM,68.0,55.9,65,29.69,10.0,SSW,16.1,27.6,N/A,,Clear,210,2011-11-13 12:53:00
7:53 AM,70.0,55.9,61,29.72,10.0,SW,12.7,23.0,N/A,,Clear,220,2011-11-13 13:53:00
8:53 AM,72.0,55.9,57,29.73,10.0,SSW,16.1,-,N/A,,Clear,210,2011-11-13 14:53:00
9:53 AM,75.0,55.9,51,29.74,10.0,SW,17.3,28.8,N/A,,Clear,230,2011-11-13 15:53:00
10:53 AM,77.0,54.0,45,29.72,10.0,SW,23.0,32.2,N/A,,Clear,220,2011-11-13 16:53:00
11:53 AM,78.1,54.0,43,29.70,10.0,SW,16.1,28.8,N/A,,Clear,230,2011-11-13 17:53:00
12:53 PM,79.0,55.0,44,29.68,10.0,SW,19.6,28.8,N/A,,Clear,230,2011-11-13 18:53:00
1:53 PM,79.0,55.0,44,29.66,10.0,SW,11.5,20.7,N/A,,Clear,220,2011-11-13 19:53:00
2:53 PM,82.9,51.1,33,29.64,10.0,SW,19.6,29.9,N/A,,Clear,220,2011-11-13 20:53:00
3:53 PM,81.0,54.0,39,29.64,10.0,SSW,18.4,27.6,N/A,,Clear,210,2011-11-13 21:53:00
4:53 PM,79.0,54.0,42,29.65,10.0,SSW,12.7,21.9,N/A,,Clear,210,2011-11-13 22:53:00
5:53 PM,77.0,55.0,47,29.65,10.0,SSW,9.2,18.4,N/A,,Clear,200,2011-11-13 23:53:00
6:53 PM,78.1,55.9,46,29.67,10.0,SSW,18.4,24.2,N/A,,Clear,200,2011-11-14 00:53:00
7:53 PM,78.1,57.0,48,29.68,10.0,SW,13.8,24.2,N/A,,Clear,220,2011-11-14 01:53:00
8:53 PM,77.0,57.0,50,29.69,10.0,SSW,16.1,24.2,N/A,,Clear,210,2011-11-14 02:53:00
9:53 PM,77.0,57.9,52,29.69,10.0,SSW,13.8,20.7,N/A,,Clear,210,2011-11-14 03:53:00
10:53 PM,77.0,57.9,52,29.69,10.0,SSW,13.8,21.9,N/A,,Clear,210,2011-11-14 04:53:00
11:53 PM,75.9,57.9,54,29.68,10.0,SSW,16.1,27.6,N/A,,Clear,200,2011-11-14 05:53:00